sensor_id;sensor_type;location;lat;lon;timestamp;pressure;altitude;pressure_sealevel;temperature;humidity
24154;BME280;12312;53.362;-1.518;2022-09-25T00:01:32;99922.69;;;8.51;89.92
24154;BME280;12312;53.362;-1.518;2022-09-25T00:03:58;99918.25;;;8.52;90.22
24154;BME280;12312;53.362;-1.518;2022-09-25T00:06:27;99920.19;;;8.48;89.72
24154;BME280;12312;53.362;-1.518;2022-09-25T00:08:53;99922.44;;;8.56;89.88
24154;BME280;12312;53.362;-1.518;2022-09-25T00:11:25;99916.28;;;8.55;89.61
24154;BME280;12312;53.362;-1.518;2022-09-25T00:13:53;99922.28;;;8.59;89.19
24154;BME280;12312;53.362;-1.518;2022-09-25T00:16:21;99928.63;;;8.56;89.88
24154;BME280;12312;53.362;-1.518;2022-09-25T00:18:48;99928.63;;;8.56;89.42
24154;BME280;12312;53.362;-1.518;2022-09-25T00:21:33;99922.22;;;8.60;89.05
24154;BME280;12312;53.362;-1.518;2022-09-25T00:24:02;99928.47;;;8.59;88.79
24154;BME280;12312;53.362;-1.518;2022-09-25T00:26:31;99924.84;;;8.60;88.64
24154;BME280;12312;53.362;-1.518;2022-09-25T00:28:58;99920.41;;;8.61;88.17
24154;BME280;12312;53.362;-1.518;2022-09-25T00:31:26;99930.16;;;8.60;88.37
24154;BME280;12312;53.362;-1.518;2022-09-25T00:33:53;99918.84;;;8.57;87.84
24154;BME280;12312;53.362;-1.518;2022-09-25T00:36:20;99923.91;;;8.61;88.15
24154;BME280;12312;53.362;-1.518;2022-09-25T00:38:46;99923.91;;;8.61;87.41
24154;BME280;12312;53.362;-1.518;2022-09-25T00:41:15;99922.69;;;8.51;87.90
24154;BME280;12312;53.362;-1.518;2022-09-25T00:43:50;99923.47;;;8.53;87.43
24154;BME280;12312;53.362;-1.518;2022-09-25T00:46:20;99925.34;;;8.51;87.81
24154;BME280;12312;53.362;-1.518;2022-09-25T00:49:03;99928.09;;;8.50;87.57
24154;BME280;12312;53.362;-1.518;2022-09-25T00:51:43;99925.03;;;8.40;87.78
24154;BME280;12312;53.362;-1.518;2022-09-25T00:54:18;99925.03;;;8.40;87.59
24154;BME280;12312;53.362;-1.518;2022-09-25T00:56:47;99933.56;;;8.30;87.85
24154;BME280;12312;53.362;-1.518;2022-09-25T00:59:20;99931.78;;;8.30;88.05
24154;BME280;12312;53.362;-1.518;2022-09-25T01:01:47;99924.53;;;8.34;88.15
24154;BME280;12312;53.362;-1.518;2022-09-25T01:04:15;99925.22;;;8.37;88.39
24154;BME280;12312;53.362;-1.518;2022-09-25T01:06:42;99932.19;;;8.55;88.86
24154;BME280;12312;53.362;-1.518;2022-09-25T01:09:08;99923.75;;;8.64;87.94
24154;BME280;12312;53.362;-1.518;2022-09-25T01:11:33;99928.63;;;8.56;86.84
24154;BME280;12312;53.362;-1.518;2022-09-25T01:14:01;99924.84;;;8.60;85.85
24154;BME280;12312;53.362;-1.518;2022-09-25T01:16:53;99921.25;;;8.61;85.06
24154;BME280;12312;53.362;-1.518;2022-09-25T01:19:42;99928.94;;;8.50;85.66
24154;BME280;12312;53.362;-1.518;2022-09-25T01:30:41;99913.84;;;8.35;88.59
24154;BME280;12312;53.362;-1.518;2022-09-25T01:33:23;99922.56;;;8.37;89.25
24154;BME280;12312;53.362;-1.518;2022-09-25T01:36:01;99914.84;;;8.33;88.36
24154;BME280;12312;53.362;-1.518;2022-09-25T01:38:35;99911.50;;;8.12;86.86
24154;BME280;12312;53.362;-1.518;2022-09-25T01:41:11;99912.75;;;8.22;87.34
24154;BME280;12312;53.362;-1.518;2022-09-25T01:43:49;99909.19;;;8.23;87.05
24154;BME280;12312;53.362;-1.518;2022-09-25T01:46:20;99911.59;;;8.28;85.47
24154;BME280;12312;53.362;-1.518;2022-09-25T01:48:53;99912.56;;;8.08;86.24
24154;BME280;12312;53.362;-1.518;2022-09-25T01:51:25;99908.38;;;8.04;86.62
24154;BME280;12312;53.362;-1.518;2022-09-25T01:53:56;99914.69;;;7.85;86.75
24154;BME280;12312;53.362;-1.518;2022-09-25T01:56:27;99898.69;;;7.86;86.62
24154;BME280;12312;53.362;-1.518;2022-09-25T01:59:06;99899.16;;;7.77;87.14
24154;BME280;12312;53.362;-1.518;2022-09-25T02:01:37;99893.88;;;7.77;86.44
24154;BME280;12312;53.362;-1.518;2022-09-25T02:04:11;99909.75;;;7.77;86.34
24154;BME280;12312;53.362;-1.518;2022-09-25T02:06:40;99886.88;;;7.76;86.24
24154;BME280;12312;53.362;-1.518;2022-09-25T02:09:13;99899.97;;;7.79;86.14
24154;BME280;12312;53.362;-1.518;2022-09-25T02:11:44;99891.69;;;7.85;85.05
24154;BME280;12312;53.362;-1.518;2022-09-25T02:14:17;99890.81;;;7.85;84.88
24154;BME280;12312;53.362;-1.518;2022-09-25T02:16:47;99884.34;;;7.90;84.29
24154;BME280;12312;53.362;-1.518;2022-09-25T02:19:15;99877.19;;;7.92;84.49
24154;BME280;12312;53.362;-1.518;2022-09-25T02:22:14;99882.50;;;8.09;83.57
24154;BME280;12312;53.362;-1.518;2022-09-25T02:24:52;99881.38;;;8.13;82.97
24154;BME280;12312;53.362;-1.518;2022-09-25T02:27:21;99887.00;;;8.07;83.36
24154;BME280;12312;53.362;-1.518;2022-09-25T02:29:49;99893.84;;;8.11;83.15
24154;BME280;12312;53.362;-1.518;2022-09-25T02:32:18;99899.16;;;8.11;82.67
24154;BME280;12312;53.362;-1.518;2022-09-25T02:34:46;99890.66;;;8.22;82.85
24154;BME280;12312;53.362;-1.518;2022-09-25T02:37:15;99889.16;;;8.16;82.66
24154;BME280;12312;53.362;-1.518;2022-09-25T02:39:47;99880.94;;;8.22;81.93
24154;BME280;12312;53.362;-1.518;2022-09-25T02:42:42;99884.38;;;8.24;80.58
24154;BME280;12312;53.362;-1.518;2022-09-25T02:47:50;99879.53;;;8.32;81.42
24154;BME280;12312;53.362;-1.518;2022-09-25T03:01:37;99877.44;;;8.54;79.10
24154;BME280;12312;53.362;-1.518;2022-09-25T03:04:07;99874.88;;;8.53;79.41
24154;BME280;12312;53.362;-1.518;2022-09-25T03:06:35;99873.78;;;8.72;80.34
24154;BME280;12312;53.362;-1.518;2022-09-25T03:09:03;99867.94;;;8.50;79.44
24154;BME280;12312;53.362;-1.518;2022-09-25T03:11:28;99868.84;;;8.49;79.05
24154;BME280;12312;53.362;-1.518;2022-09-25T03:14:00;99866.94;;;8.36;79.04
24154;BME280;12312;53.362;-1.518;2022-09-25T03:19:11;99856.63;;;8.47;77.73
24154;BME280;12312;53.362;-1.518;2022-09-25T03:21:37;99848.72;;;8.62;77.91
24154;BME280;12312;53.362;-1.518;2022-09-25T03:24:03;99847.34;;;8.71;76.63
24154;BME280;12312;53.362;-1.518;2022-09-25T03:26:29;99852.28;;;8.61;77.27
24154;BME280;12312;53.362;-1.518;2022-09-25T03:28:58;99849.22;;;8.53;76.43
24154;BME280;12312;53.362;-1.518;2022-09-25T03:31:27;99846.63;;;8.52;76.08
24154;BME280;12312;53.362;-1.518;2022-09-25T03:33:53;99847.31;;;8.55;75.98
24154;BME280;12312;53.362;-1.518;2022-09-25T03:36:22;99836.88;;;8.52;76.19
24154;BME280;12312;53.362;-1.518;2022-09-25T03:38:50;99850.28;;;8.49;76.09
24154;BME280;12312;53.362;-1.518;2022-09-25T03:41:18;99836.69;;;8.55;75.31
24154;BME280;12312;53.362;-1.518;2022-09-25T03:43:46;99840.81;;;8.61;74.44
24154;BME280;12312;53.362;-1.518;2022-09-25T03:46:19;99834.31;;;8.66;74.60
24154;BME280;12312;53.362;-1.518;2022-09-25T03:48:46;99828.34;;;8.78;74.59
24154;BME280;12312;53.362;-1.518;2022-09-25T03:51:12;99835.38;;;8.79;74.80
24154;BME280;12312;53.362;-1.518;2022-09-25T03:53:38;99836.22;;;8.95;74.97
24154;BME280;12312;53.362;-1.518;2022-09-25T03:56:07;99838.09;;;9.09;74.42
24154;BME280;12312;53.362;-1.518;2022-09-25T03:58:33;99835.19;;;9.14;74.27
24154;BME280;12312;53.362;-1.518;2022-09-25T04:00:59;99841.88;;;9.05;74.74
24154;BME280;12312;53.362;-1.518;2022-09-25T04:03:27;99845.06;;;8.96;74.34
24154;BME280;12312;53.362;-1.518;2022-09-25T04:05:56;99844.09;;;8.81;74.56
24154;BME280;12312;53.362;-1.518;2022-09-25T04:08:24;99847.88;;;8.77;74.30
24154;BME280;12312;53.362;-1.518;2022-09-25T04:10:55;99841.34;;;8.83;74.57
24154;BME280;12312;53.362;-1.518;2022-09-25T04:13:22;99842.22;;;8.83;73.69
24154;BME280;12312;53.362;-1.518;2022-09-25T04:15:48;99835.97;;;8.84;73.56
24154;BME280;12312;53.362;-1.518;2022-09-25T04:18:14;99845.56;;;8.87;73.26
24154;BME280;12312;53.362;-1.518;2022-09-25T04:20:40;99840.50;;;8.82;73.03
24154;BME280;12312;53.362;-1.518;2022-09-25T04:23:05;99840.16;;;8.88;72.78
24154;BME280;12312;53.362;-1.518;2022-09-25T04:25:31;99844.09;;;8.81;72.99
24154;BME280;12312;53.362;-1.518;2022-09-25T04:27:57;99833.47;;;8.81;73.23
24154;BME280;12312;53.362;-1.518;2022-09-25T04:30:24;99831.78;;;8.80;72.72
24154;BME280;12312;53.362;-1.518;2022-09-25T04:32:50;99836.03;;;8.83;73.30
24154;BME280;12312;53.362;-1.518;2022-09-25T04:35:35;99822.84;;;8.81;72.42
24154;BME280;12312;53.362;-1.518;2022-09-25T04:38:00;99829.03;;;8.82;72.88
24154;BME280;12312;53.362;-1.518;2022-09-25T04:40:27;99825.34;;;8.84;72.36
24154;BME280;12312;53.362;-1.518;2022-09-25T04:42:57;99820.81;;;8.86;72.55
24154;BME280;12312;53.362;-1.518;2022-09-25T04:45:23;99819.94;;;9.01;73.11
24154;BME280;12312;53.362;-1.518;2022-09-25T04:47:52;99810.25;;;9.16;72.39
24154;BME280;12312;53.362;-1.518;2022-09-25T04:50:19;99820.59;;;9.21;72.08
24154;BME280;12312;53.362;-1.518;2022-09-25T04:52:45;99808.44;;;9.32;71.92
24154;BME280;12312;53.362;-1.518;2022-09-25T04:55:10;99808.53;;;9.31;71.82
24154;BME280;12312;53.362;-1.518;2022-09-25T04:57:36;99810.03;;;9.35;72.07
24154;BME280;12312;53.362;-1.518;2022-09-25T05:00:04;99803.38;;;9.28;72.00
24154;BME280;12312;53.362;-1.518;2022-09-25T05:02:30;99799.34;;;9.21;72.48
24154;BME280;12312;53.362;-1.518;2022-09-25T05:04:56;99801.78;;;9.10;72.68
24154;BME280;12312;53.362;-1.518;2022-09-25T05:07:21;99794.34;;;9.00;72.88
24154;BME280;12312;53.362;-1.518;2022-09-25T05:09:47;99795.63;;;8.93;73.05
24154;BME280;12312;53.362;-1.518;2022-09-25T05:12:13;99794.44;;;8.83;73.41
24154;BME280;12312;53.362;-1.518;2022-09-25T05:14:39;99791.53;;;8.72;74.53
24154;BME280;12312;53.362;-1.518;2022-09-25T05:17:07;99796.84;;;8.72;73.85
24154;BME280;12312;53.362;-1.518;2022-09-25T05:19:34;99799.41;;;8.74;73.92
24154;BME280;12312;53.362;-1.518;2022-09-25T05:22:00;99783.31;;;8.77;73.47
24154;BME280;12312;53.362;-1.518;2022-09-25T05:24:25;99786.31;;;8.71;72.98
24154;BME280;12312;53.362;-1.518;2022-09-25T05:26:51;99792.81;;;8.65;73.74
24154;BME280;12312;53.362;-1.518;2022-09-25T05:29:18;99782.97;;;8.67;73.30
24154;BME280;12312;53.362;-1.518;2022-09-25T05:31:43;99782.13;;;8.67;73.07
24154;BME280;12312;53.362;-1.518;2022-09-25T05:34:13;99787.34;;;8.68;73.32
24154;BME280;12312;53.362;-1.518;2022-09-25T05:36:39;99784.78;;;8.67;73.18
24154;BME280;12312;53.362;-1.518;2022-09-25T05:39:04;99786.06;;;8.75;72.57
24154;BME280;12312;53.362;-1.518;2022-09-25T05:41:30;99784.00;;;8.80;72.65
24154;BME280;12312;53.362;-1.518;2022-09-25T05:43:57;99785.88;;;8.78;72.58
24154;BME280;12312;53.362;-1.518;2022-09-25T05:46:26;99777.47;;;8.86;72.55
24154;BME280;12312;53.362;-1.518;2022-09-25T05:48:51;99784.19;;;8.77;73.10
24154;BME280;12312;53.362;-1.518;2022-09-25T05:51:17;99781.78;;;8.88;73.15
24154;BME280;12312;53.362;-1.518;2022-09-25T05:53:42;99783.91;;;8.82;73.00
24154;BME280;12312;53.362;-1.518;2022-09-25T05:56:08;99779.53;;;8.96;72.66
24154;BME280;12312;53.362;-1.518;2022-09-25T05:58:34;99771.47;;;8.98;73.63
24154;BME280;12312;53.362;-1.518;2022-09-25T06:01:02;99777.47;;;8.86;73.39
24154;BME280;12312;53.362;-1.518;2022-09-25T06:03:28;99785.63;;;8.98;77.63
24154;BME280;12312;53.362;-1.518;2022-09-25T06:05:58;99773.69;;;9.05;79.38
24154;BME280;12312;53.362;-1.518;2022-09-25T06:08:25;99770.84;;;9.08;74.83
24154;BME280;12312;53.362;-1.518;2022-09-25T06:10:52;99767.50;;;9.21;77.31
24154;BME280;12312;53.362;-1.518;2022-09-25T06:13:23;99768.53;;;9.18;75.08
24154;BME280;12312;53.362;-1.518;2022-09-25T06:15:50;99775.41;;;9.07;74.30
24154;BME280;12312;53.362;-1.518;2022-09-25T06:18:20;99771.09;;;9.20;73.89
24154;BME280;12312;53.362;-1.518;2022-09-25T06:20:47;99769.56;;;9.16;75.66
24154;BME280;12312;53.362;-1.518;2022-09-25T06:23:13;99771.22;;;9.48;79.29
24154;BME280;12312;53.362;-1.518;2022-09-25T06:25:39;99781.34;;;9.41;76.67
24154;BME280;12312;53.362;-1.518;2022-09-25T06:28:05;99777.91;;;9.39;75.53
24154;BME280;12312;53.362;-1.518;2022-09-25T06:30:33;99771.16;;;9.34;73.86
24154;BME280;12312;53.362;-1.518;2022-09-25T06:33:04;99777.94;;;9.24;74.09
24154;BME280;12312;53.362;-1.518;2022-09-25T06:35:35;99776.78;;;9.14;76.28
24154;BME280;12312;53.362;-1.518;2022-09-25T06:38:02;99768.53;;;9.18;74.59
24154;BME280;12312;53.362;-1.518;2022-09-25T06:40:29;99774.72;;;9.19;75.00
24154;BME280;12312;53.362;-1.518;2022-09-25T06:42:56;99766.06;;;8.99;74.45
24154;BME280;12312;53.362;-1.518;2022-09-25T06:45:23;99769.25;;;9.06;77.39
24154;BME280;12312;53.362;-1.518;2022-09-25T06:47:48;99770.56;;;9.29;75.03
24154;BME280;12312;53.362;-1.518;2022-09-25T06:50:14;99763.72;;;9.25;74.58
24154;BME280;12312;53.362;-1.518;2022-09-25T06:52:41;99757.75;;;9.05;74.36
24154;BME280;12312;53.362;-1.518;2022-09-25T06:55:07;99766.50;;;9.07;75.70
24154;BME280;12312;53.362;-1.518;2022-09-25T06:57:33;99770.13;;;9.07;74.80
24154;BME280;12312;53.362;-1.518;2022-09-25T07:00:03;99764.22;;;8.86;75.91
24154;BME280;12312;53.362;-1.518;2022-09-25T07:02:29;99760.91;;;8.82;75.79
24154;BME280;12312;53.362;-1.518;2022-09-25T07:05:14;99760.56;;;8.88;74.83
24154;BME280;12312;53.362;-1.518;2022-09-25T07:07:44;99759.41;;;8.92;74.94
24154;BME280;12312;53.362;-1.518;2022-09-25T07:10:10;99760.19;;;8.94;75.09
24154;BME280;12312;53.362;-1.518;2022-09-25T07:12:36;99759.84;;;9.00;74.58
24154;BME280;12312;53.362;-1.518;2022-09-25T07:15:03;99769.75;;;9.13;75.10
24154;BME280;12312;53.362;-1.518;2022-09-25T07:17:29;99765.78;;;9.20;75.22
24154;BME280;12312;53.362;-1.518;2022-09-25T07:19:54;99760.47;;;9.20;75.55
24154;BME280;12312;53.362;-1.518;2022-09-25T07:22:20;99765.25;;;9.29;75.39
24154;BME280;12312;53.362;-1.518;2022-09-25T07:24:46;99767.31;;;9.24;74.72
24154;BME280;12312;53.362;-1.518;2022-09-25T07:27:11;99764.50;;;9.27;75.38
24154;BME280;12312;53.362;-1.518;2022-09-25T07:29:37;99761.94;;;9.25;74.99
24154;BME280;12312;53.362;-1.518;2022-09-25T07:32:03;99757.00;;;9.33;75.08
24154;BME280;12312;53.362;-1.518;2022-09-25T07:34:29;99763.00;;;9.37;75.32
24154;BME280;12312;53.362;-1.518;2022-09-25T07:36:55;99754.69;;;9.43;75.46
24154;BME280;12312;53.362;-1.518;2022-09-25T07:39:21;99755.09;;;9.51;75.26
24154;BME280;12312;53.362;-1.518;2022-09-25T07:41:46;99752.63;;;9.62;75.67
24154;BME280;12312;53.362;-1.518;2022-09-25T07:44:15;99753.97;;;9.69;76.48
24154;BME280;12312;53.362;-1.518;2022-09-25T07:46:41;99753.31;;;9.65;75.48
24154;BME280;12312;53.362;-1.518;2022-09-25T07:49:11;99756.84;;;9.80;75.24
24154;BME280;12312;53.362;-1.518;2022-09-25T07:51:42;99753.81;;;9.86;75.24
24154;BME280;12312;53.362;-1.518;2022-09-25T07:54:08;99754.09;;;9.81;74.49
24154;BME280;12312;53.362;-1.518;2022-09-25T07:56:34;99752.88;;;9.87;76.29
24154;BME280;12312;53.362;-1.518;2022-09-25T07:58:59;99748.78;;;9.81;73.92
24154;BME280;12312;53.362;-1.518;2022-09-25T08:01:25;99750.41;;;9.84;73.36
24154;BME280;12312;53.362;-1.518;2022-09-25T08:03:50;99755.25;;;9.91;72.64
24154;BME280;12312;53.362;-1.518;2022-09-25T08:06:16;99757.34;;;10.00;72.03
24154;BME280;12312;53.362;-1.518;2022-09-25T08:08:42;99754.28;;;9.92;72.20
24154;BME280;12312;53.362;-1.518;2022-09-25T08:11:11;99741.84;;;9.93;71.67
24154;BME280;12312;53.362;-1.518;2022-09-25T08:13:37;99747.38;;;9.90;73.06
24154;BME280;12312;53.362;-1.518;2022-09-25T08:16:04;99744.91;;;10.01;72.81
24154;BME280;12312;53.362;-1.518;2022-09-25T08:18:32;99747.00;;;10.24;71.67
24154;BME280;12312;53.362;-1.518;2022-09-25T08:21:03;99738.47;;;10.33;72.62
24154;BME280;12312;53.362;-1.518;2022-09-25T08:23:30;99731.19;;;10.63;73.10
24154;BME280;12312;53.362;-1.518;2022-09-25T08:25:57;99725.88;;;10.49;72.19
24154;BME280;12312;53.362;-1.518;2022-09-25T08:28:23;99736.25;;;10.53;70.70
24154;BME280;12312;53.362;-1.518;2022-09-25T08:30:49;99722.81;;;10.69;71.24
24154;BME280;12312;53.362;-1.518;2022-09-25T08:33:14;99722.19;;;10.78;71.15
24154;BME280;12312;53.362;-1.518;2022-09-25T08:35:41;99718.84;;;10.89;70.81
24154;BME280;12312;53.362;-1.518;2022-09-25T08:38:08;99719.34;;;11.20;70.01
24154;BME280;12312;53.362;-1.518;2022-09-25T08:40:45;99722.69;;;10.97;70.34
24154;BME280;12312;53.362;-1.518;2022-09-25T08:43:19;99729.97;;;11.08;70.10
24154;BME280;12312;53.362;-1.518;2022-09-25T08:45:46;99719.22;;;11.09;70.35
24154;BME280;12312;53.362;-1.518;2022-09-25T08:48:38;99714.28;;;11.03;70.70
24154;BME280;12312;53.362;-1.518;2022-09-25T08:51:28;99715.09;;;10.91;70.48
24154;BME280;12312;53.362;-1.518;2022-09-25T08:53:54;99717.44;;;10.83;70.25
24154;BME280;12312;53.362;-1.518;2022-09-25T08:56:20;99719.94;;;10.72;70.02
24154;BME280;12312;53.362;-1.518;2022-09-25T09:01:23;99712.41;;;11.05;69.37
24154;BME280;12312;53.362;-1.518;2022-09-25T09:03:52;99709.13;;;11.14;68.42
24154;BME280;12312;53.362;-1.518;2022-09-25T09:06:18;99692.13;;;11.42;67.58
24154;BME280;12312;53.362;-1.518;2022-09-25T09:08:54;99690.63;;;11.50;67.78
24154;BME280;12312;53.362;-1.518;2022-09-25T09:11:31;99701.72;;;11.44;67.91
24154;BME280;12312;53.362;-1.518;2022-09-25T09:14:02;99687.66;;;11.42;66.43
24154;BME280;12312;53.362;-1.518;2022-09-25T09:16:49;99691.06;;;11.57;65.46
24154;BME280;12312;53.362;-1.518;2022-09-25T09:19:18;99693.56;;;11.72;65.17
24154;BME280;12312;53.362;-1.518;2022-09-25T09:27:15;99687.88;;;12.14;63.54
24154;BME280;12312;53.362;-1.518;2022-09-25T09:29:52;99678.22;;;12.24;62.71
24154;BME280;12312;53.362;-1.518;2022-09-25T09:35:59;99672.72;;;12.75;63.19
24154;BME280;12312;53.362;-1.518;2022-09-25T09:39:35;99675.97;;;12.91;64.78
24154;BME280;12312;53.362;-1.518;2022-09-25T09:42:13;99666.03;;;12.45;64.84
24154;BME280;12312;53.362;-1.518;2022-09-25T09:50:22;99647.03;;;12.37;66.23
24154;BME280;12312;53.362;-1.518;2022-09-25T09:53:07;99654.81;;;12.64;66.66
24154;BME280;12312;53.362;-1.518;2022-09-25T09:55:40;99657.34;;;12.54;66.95
24154;BME280;12312;53.362;-1.518;2022-09-25T09:58:20;99644.38;;;12.85;67.19
24154;BME280;12312;53.362;-1.518;2022-09-25T10:00:47;99647.50;;;13.26;65.60
24154;BME280;12312;53.362;-1.518;2022-09-25T10:03:22;99633.38;;;13.24;65.87
24154;BME280;12312;53.362;-1.518;2022-09-25T10:05:53;99638.63;;;13.36;65.49
24154;BME280;12312;53.362;-1.518;2022-09-25T10:08:19;99629.19;;;13.09;66.18
24154;BME280;12312;53.362;-1.518;2022-09-25T10:10:49;99628.81;;;13.48;66.48
24154;BME280;12312;53.362;-1.518;2022-09-25T10:13:24;99620.53;;;13.51;64.96
24154;BME280;12312;53.362;-1.518;2022-09-25T10:18:34;99621.13;;;13.32;66.67
24154;BME280;12312;53.362;-1.518;2022-09-25T10:23:53;99613.56;;;13.15;67.51
24154;BME280;12312;53.362;-1.518;2022-09-25T10:26:28;99610.22;;;13.01;68.22
24154;BME280;12312;53.362;-1.518;2022-09-25T10:31:38;99591.94;;;13.18;67.40
24154;BME280;12312;53.362;-1.518;2022-09-25T10:36:40;99595.97;;;12.66;69.33
24154;BME280;12312;53.362;-1.518;2022-09-25T10:39:31;99591.00;;;12.96;69.91
24154;BME280;12312;53.362;-1.518;2022-09-25T10:41:59;99595.25;;;12.64;68.49
24154;BME280;12312;53.362;-1.518;2022-09-25T10:44:34;99589.09;;;12.50;67.47
24154;BME280;12312;53.362;-1.518;2022-09-25T10:50:24;99578.50;;;12.38;67.19
24154;BME280;12312;53.362;-1.518;2022-09-25T10:52:57;99576.19;;;12.33;67.87
24154;BME280;12312;53.362;-1.518;2022-09-25T10:55:27;99576.59;;;12.27;67.60
24154;BME280;12312;53.362;-1.518;2022-09-25T11:00:28;99567.75;;;12.50;67.19
24154;BME280;12312;53.362;-1.518;2022-09-25T11:02:57;99567.28;;;12.56;67.17
24154;BME280;12312;53.362;-1.518;2022-09-25T11:05:28;99566.09;;;12.37;67.81
24154;BME280;12312;53.362;-1.518;2022-09-25T11:07:57;99563.44;;;12.61;67.84
24154;BME280;12312;53.362;-1.518;2022-09-25T11:10:36;99568.34;;;12.78;67.47
24154;BME280;12312;53.362;-1.518;2022-09-25T11:13:24;99558.78;;;12.51;67.66
24154;BME280;12312;53.362;-1.518;2022-09-25T11:15:55;99557.16;;;12.73;67.66
24154;BME280;12312;53.362;-1.518;2022-09-25T11:18:48;99563.13;;;12.76;67.04
24154;BME280;12312;53.362;-1.518;2022-09-25T11:26:30;99535.00;;;12.59;68.59
24154;BME280;12312;53.362;-1.518;2022-09-25T11:31:47;99530.59;;;12.82;67.64
24154;BME280;12312;53.362;-1.518;2022-09-25T11:34:18;99529.09;;;12.56;68.32
24154;BME280;12312;53.362;-1.518;2022-09-25T11:37:11;99516.59;;;12.68;66.77
24154;BME280;12312;53.362;-1.518;2022-09-25T11:39:46;99518.56;;;13.00;66.63
24154;BME280;12312;53.362;-1.518;2022-09-25T11:43:05;99516.59;;;12.68;66.75
24154;BME280;12312;53.362;-1.518;2022-09-25T11:46:26;99516.38;;;12.71;67.59
24154;BME280;12312;53.362;-1.518;2022-09-25T12:00:19;99493.94;;;12.38;68.22
24154;BME280;12312;53.362;-1.518;2022-09-25T12:03:09;99507.03;;;12.41;69.85
24154;BME280;12312;53.362;-1.518;2022-09-25T12:18:11;99495.66;;;12.16;69.94
24154;BME280;12312;53.362;-1.518;2022-09-25T12:20:59;99490.97;;;12.30;70.33
24154;BME280;12312;53.362;-1.518;2022-09-25T12:23:33;99496.13;;;12.33;69.47
24154;BME280;12312;53.362;-1.518;2022-09-25T12:29:18;99468.44;;;12.34;69.82
24154;BME280;12312;53.362;-1.518;2022-09-25T12:35:15;99463.44;;;12.65;69.25
24154;BME280;12312;53.362;-1.518;2022-09-25T12:37:47;99449.41;;;12.85;68.46
24154;BME280;12312;53.362;-1.518;2022-09-25T12:40:27;99456.97;;;13.24;67.75
24154;BME280;12312;53.362;-1.518;2022-09-25T12:43:09;99457.94;;;13.12;68.11
24154;BME280;12312;53.362;-1.518;2022-09-25T12:46:27;99448.13;;;13.12;68.37
24154;BME280;12312;53.362;-1.518;2022-09-25T12:54:05;99446.84;;;14.03;65.41
24154;BME280;12312;53.362;-1.518;2022-09-25T12:56:56;99456.34;;;13.20;67.67
24154;BME280;12312;53.362;-1.518;2022-09-25T13:02:01;99446.59;;;12.86;70.22
24154;BME280;12312;53.362;-1.518;2022-09-25T13:07:26;99436.41;;;12.80;71.41
24154;BME280;12312;53.362;-1.518;2022-09-25T13:09:54;99428.53;;;13.01;69.88
24154;BME280;12312;53.362;-1.518;2022-09-25T13:12:32;99429.72;;;12.86;70.94
24154;BME280;12312;53.362;-1.518;2022-09-25T13:15:03;99431.38;;;12.65;71.61
24154;BME280;12312;53.362;-1.518;2022-09-25T13:17:31;99432.38;;;12.75;71.59
24154;BME280;12312;53.362;-1.518;2022-09-25T13:23:04;99424.72;;;12.59;70.89
24154;BME280;12312;53.362;-1.518;2022-09-25T13:25:39;99405.66;;;12.52;71.58
24154;BME280;12312;53.362;-1.518;2022-09-25T13:28:07;99403.59;;;12.67;71.57
24154;BME280;12312;53.362;-1.518;2022-09-25T13:30:33;99407.47;;;12.63;71.61
24154;BME280;12312;53.362;-1.518;2022-09-25T13:33:01;99404.97;;;12.84;70.42
24154;BME280;12312;53.362;-1.518;2022-09-25T13:35:30;99384.53;;;12.72;70.51
24154;BME280;12312;53.362;-1.518;2022-09-25T13:38:10;99379.22;;;12.94;70.58
24154;BME280;12312;53.362;-1.518;2022-09-25T13:40:59;99378.00;;;12.98;69.86
24154;BME280;12312;53.362;-1.518;2022-09-25T13:43:26;99373.28;;;13.12;69.60
24154;BME280;12312;53.362;-1.518;2022-09-25T13:48:40;99361.38;;;13.27;69.66
24154;BME280;12312;53.362;-1.518;2022-09-25T13:53:52;99340.94;;;13.69;67.33
24154;BME280;12312;53.362;-1.518;2022-09-25T13:56:22;99342.16;;;13.65;67.49
24154;BME280;12312;53.362;-1.518;2022-09-25T14:01:54;99331.50;;;13.54;66.92
24154;BME280;12312;53.362;-1.518;2022-09-25T14:04:32;99311.66;;;13.25;67.70
24154;BME280;12312;53.362;-1.518;2022-09-25T14:07:23;99314.50;;;13.55;68.28
24154;BME280;12312;53.362;-1.518;2022-09-25T14:09:54;99297.31;;;13.68;67.10
24154;BME280;12312;53.362;-1.518;2022-09-25T14:12:34;99299.13;;;13.68;67.37
24154;BME280;12312;53.362;-1.518;2022-09-25T14:15:53;99298.34;;;13.77;66.58
24154;BME280;12312;53.362;-1.518;2022-09-25T14:17:56;99296.72;;;13.65;66.93
24154;BME280;12312;53.362;-1.518;2022-09-25T14:20:56;99293.91;;;13.35;69.37
24154;BME280;12312;53.362;-1.518;2022-09-25T14:23:25;99298.50;;;13.44;68.66
24154;BME280;12312;53.362;-1.518;2022-09-25T14:26:04;99296.19;;;13.08;69.18
24154;BME280;12312;53.362;-1.518;2022-09-25T14:28:39;99298.34;;;12.92;69.67
24154;BME280;12312;53.362;-1.518;2022-09-25T14:41:46;99285.25;;;12.78;70.02
24154;BME280;12312;53.362;-1.518;2022-09-25T14:44:40;99284.78;;;12.84;70.05
24154;BME280;12312;53.362;-1.518;2022-09-25T14:47:11;99279.41;;;12.95;70.07
24154;BME280;12312;53.362;-1.518;2022-09-25T14:49:42;99278.19;;;13.10;70.26
24154;BME280;12312;53.362;-1.518;2022-09-25T14:52:13;99272.31;;;13.16;69.41
24154;BME280;12312;53.362;-1.518;2022-09-25T14:54:44;99273.31;;;13.15;69.88
24154;BME280;12312;53.362;-1.518;2022-09-25T14:57:14;99268.66;;;13.28;69.43
24154;BME280;12312;53.362;-1.518;2022-09-25T14:59:50;99271.81;;;13.22;69.29
24154;BME280;12312;53.362;-1.518;2022-09-25T15:04:56;99248.59;;;13.02;68.62
24154;BME280;12312;53.362;-1.518;2022-09-25T15:07:23;99235.66;;;13.18;68.63
24154;BME280;12312;53.362;-1.518;2022-09-25T15:09:52;99234.25;;;13.03;68.90
24154;BME280;12312;53.362;-1.518;2022-09-25T15:15:05;99229.03;;;13.33;68.46
24154;BME280;12312;53.362;-1.518;2022-09-25T15:17:56;99227.09;;;13.35;68.87
24154;BME280;12312;53.362;-1.518;2022-09-25T15:20:30;99214.41;;;13.16;68.84
24154;BME280;12312;53.362;-1.518;2022-09-25T15:23:05;99211.59;;;13.18;68.95
24154;BME280;12312;53.362;-1.518;2022-09-25T15:25:37;99212.13;;;13.01;69.32
24154;BME280;12312;53.362;-1.518;2022-09-25T15:28:07;99232.03;;;12.97;69.89
24154;BME280;12312;53.362;-1.518;2022-09-25T15:30:37;99218.47;;;12.78;70.04
24154;BME280;12312;53.362;-1.518;2022-09-25T15:33:41;99202.66;;;13.08;69.24